Latest Weather Observations for Cape Jaffa

IDS60801

Issued at 2:31 pm CDT Friday 12 February 2016 (issued every 30 minutes, with the page automatically refreshed every 10 minutes)

About weather observations | Map of weather stations | Latest weather observations for SA | Other Formats
Station Details ID: 026095 Name: THE LIMESTONE Lat: -36.97 Lon: 139.72 Height: 17.0 m
Data from the previous 72 hours. | See also: Recent months at Cape Jaffa
Date/Time
CDT
Temp
°C
App
Temp
°C
Dew
Point
Rel
Hum
%
Delta-T
°C
Wind Press
QNH
hPa
Press
MSL
hPa
Rain
since 9 am
mm
Dir
 
Spd
km/h
Gust
km/h
Spd
kts
Gust
kts
12/02:30pm 22.0 19.1 12.8 56 5.2 SSW 20 24 11 13 1013.6 1013.5 0.0
12/02:00pm 21.8 20.1 12.6 56 5.2 SSW 13 20 7 11 1014.0 1013.9 0.0
12/01:30pm 21.9 20.7 12.7 56 5.2 SSW 11 15 6 8 1014.2 1014.1 0.0
12/01:00pm 21.8 20.2 12.9 57 5.1 SSW 13 17 7 9 1014.5 1014.4 0.0
12/12:30pm 22.1 20.3 13.2 57 5.1 SSW 15 19 8 10 1014.6 1014.5 0.0
12/12:00pm 20.7 18.5 13.2 62 4.3 SSW 17 20 9 11 1015.1 1015.0 0.0
12/11:30am 21.2 19.0 13.4 61 4.5 SSW 17 20 9 11 1015.4 1015.3 0.0
12/11:00am 20.8 19.1 13.5 63 4.2 SW 15 17 8 9 1015.7 1015.6 0.0
12/10:30am 21.6 21.7 12.7 57 5.1 ENE 4 11 2 6 1015.7 1015.6 0.0
12/10:00am 20.9 20.4 12.6 59 4.7 ENE 7 15 4 8 1015.8 1015.7 0.0
12/09:30am 19.6 18.5 12.1 62 4.2 E 9 13 5 7 1016.2 1016.1 0.0
12/09:00am 18.2 17.2 12.2 68 3.3 ESE 9 13 5 7 1016.4 1016.3 0.0
12/08:30am 17.2 15.9 12.5 74 2.6 SE 11 17 6 9 1016.4 1016.3 0.0
12/08:00am 15.6 14.6 12.2 80 1.9 SE 9 13 5 7 1016.2 1016.1 0.0
12/07:30am 14.2 12.7 11.9 86 1.2 SSE 11 15 6 8 1016.0 1015.9 0.0
12/07:00am 13.2 11.5 11.3 88 1.0 SSE 11 15 6 8 1015.8 1015.7 0.0
12/06:30am 13.0 11.3 11.2 89 0.9 SSE 11 15 6 8 1015.9 1015.8 0.0
12/06:00am 13.1 11.3 11.0 87 1.1 SSE 11 15 6 8 1015.8 1015.7 0.0
12/05:30am 13.6 11.9 11.3 86 1.2 SSE 11 17 6 9 1015.6 1015.5 0.0
12/05:00am 14.0 12.1 11.7 86 1.2 SSE 13 20 7 11 1015.7 1015.6 0.0
12/04:30am 14.1 11.8 11.6 85 1.3 SSE 15 20 8 11 1015.5 1015.4 0.0
12/04:00am 14.1 12.2 11.8 86 1.2 SSE 13 17 7 9 1015.6 1015.5 0.0
12/03:30am 14.0 12.4 11.7 86 1.2 SSE 11 15 6 8 1015.8 1015.7 0.0
12/03:00am 14.1 12.6 11.8 86 1.2 SSE 11 17 6 9 1016.0 1015.9 0.0
12/02:30am 14.5 12.7 12.0 85 1.3 SSE 13 20 7 11 1016.0 1015.9 0.0
12/02:00am 14.9 12.4 12.2 84 1.5 SSE 17 22 9 12 1016.0 1015.9 0.0
12/01:30am 15.1 13.0 12.4 84 1.5 SE 15 19 8 10 1016.2 1016.1 0.0
12/01:00am 15.4 13.3 12.5 83 1.6 SE 15 22 8 12 1016.4 1016.3 0.0
12/12:30am 15.4 13.1 13.1 86 1.3 SSE 17 22 9 12 1016.7 1016.6 0.0
12/12:00am 15.5 13.7 13.3 87 1.2 SSE 15 20 8 11 1017.1 1017.0 0.0
 
Date/Time
CDT
Temp
°C
App
Temp
°C
Dew
Point
Rel
Hum
%
Delta-T
°C
Wind Press
QNH
hPa
Press
MSL
hPa
Rain
since 9 am
mm
Dir
 
Spd
km/h
Gust
km/h
Spd
kts
Gust
kts
11/11:30pm 15.5 13.0 13.5 88 1.1 S 19 24 10 13 1017.2 1017.1 0.0
11/11:00pm 15.1 12.5 13.3 89 1.0 S 19 22 10 12 1017.4 1017.3 0.0
11/10:30pm 15.3 12.5 13.3 88 1.1 S 20 24 11 13 1017.4 1017.3 0.0
11/10:00pm 15.7 12.6 13.4 86 1.3 S 22 26 12 14 1017.2 1017.1 0.0
11/09:30pm 16.8 14.0 13.3 80 2.0 S 20 26 11 14 1017.1 1017.0 0.0
11/09:00pm 17.4 13.9 13.5 78 2.2 S 24 32 13 17 1016.7 1016.6 0.0
11/08:30pm 17.6 14.3 13.9 79 2.1 S 24 32 13 17 1016.4 1016.3 0.0
11/08:00pm 18.1 13.7 14.0 77 2.3 S 30 37 16 20 1016.2 1016.1 0.0
11/07:30pm 17.5 13.1 14.2 81 1.9 S 30 37 16 20 1016.3 1016.2 0.0
11/07:00pm 17.3 12.9 14.0 81 1.9 S 30 39 16 21 1016.3 1016.2 0.0
11/06:30pm 18.6 13.9 14.3 76 2.5 S 32 39 17 21 1016.2 1016.1 0.0
11/06:00pm 18.4 13.5 14.3 77 2.4 S 33 41 18 22 1015.9 1015.8 0.0
11/05:30pm 19.8 14.3 14.6 72 3.0 S 37 44 20 24 1015.7 1015.6 0.0
11/05:00pm 19.4 14.1 14.2 72 3.0 SSW 35 43 19 23 1015.7 1015.6 0.0
11/04:30pm 20.2 14.1 14.1 68 3.5 SSW 39 46 21 25 1015.4 1015.3 0.0
11/04:00pm 20.8 14.8 14.5 67 3.7 SSW 39 48 21 26 1015.4 1015.3 0.0
11/03:30pm 20.9 15.1 15.0 69 3.5 S 39 46 21 25 1015.7 1015.6 0.0
11/03:00pm 20.8 15.0 14.9 69 3.5 SSW 39 50 21 27 1016.2 1016.1 0.0
11/02:30pm 20.9 15.0 14.8 68 3.6 SSW 39 48 21 26 1016.2 1016.1 0.0
11/02:00pm 20.8 14.9 14.7 68 3.6 SSW 39 46 21 25 1016.2 1016.1 0.0
11/01:30pm 20.5 14.9 14.4 68 3.5 SSW 37 46 20 25 1016.6 1016.5 0.0
11/01:00pm 21.2 15.7 14.8 67 3.8 SSW 37 43 20 23 1016.7 1016.6 0.0
11/12:30pm 20.8 16.2 14.5 67 3.7 SSW 32 37 17 20 1016.9 1016.8 0.0
11/12:00pm 20.9 16.2 14.3 66 3.8 SSW 32 37 17 20 1017.1 1017.0 0.0
11/11:30am 21.2 17.7 14.4 65 4.0 SSW 26 33 14 18 1017.2 1017.1 0.0
11/11:00am 20.9 18.5 14.5 67 3.7 SSW 20 24 11 13 1017.3 1017.2 0.0
11/10:30am 19.7 17.5 14.5 72 3.0 SSW 19 24 10 13 1017.7 1017.6 0.0
11/10:00am 19.4 17.9 14.2 72 3.0 SSW 15 20 8 11 1017.7 1017.6 0.0
11/09:30am 19.6 17.6 13.8 69 3.3 SSE 17 26 9 14 1018.0 1017.9 0.0
11/09:00am 19.4 18.3 14.4 73 2.9 SSE 13 22 7 12 1018.3 1018.2 0.0
11/08:30am 17.3 16.2 14.2 82 1.8 SSE 13 19 7 10 1018.4 1018.3 0.0
11/08:00am 16.6 15.8 13.9 84 1.5 SSE 11 15 6 8 1018.0 1017.9 0.0
11/07:30am 15.1 14.4 13.1 88 1.1 SSE 9 13 5 7 1017.5 1017.4 0.0
11/07:00am 13.8 12.4 12.2 90 0.9 SSE 11 15 6 8 1017.2 1017.1 0.0
11/06:30am 13.3 12.1 11.7 90 0.9 SSE 9 13 5 7 1017.1 1017.0 0.0
11/06:00am 13.3 11.7 11.5 89 1.0 SSE 11 15 6 8 1016.7 1016.6 0.0
11/05:30am 13.1 11.0 11.2 88 1.0 S 13 15 7 8 1016.4 1016.3 0.0
11/05:00am 12.4 10.1 10.6 89 0.9 S 13 17 7 9 1016.2 1016.1 0.0
11/04:30am 13.6 11.7 11.7 88 1.0 SSE 13 17 7 9 1015.9 1015.8 0.0
11/04:00am 13.5 11.2 11.6 88 1.0 SSE 15 19 8 10 1015.8 1015.7 0.0
11/03:30am 13.5 11.9 11.6 88 1.0 SSE 11 15 6 8 1015.8 1015.7 0.0
11/03:00am 13.9 12.8 11.9 88 1.1 SSE 9 15 5 8 1015.9 1015.8 0.0
11/02:30am 14.1 11.5 12.0 87 1.1 S 17 22 9 12 1015.9 1015.8 0.0
11/02:00am 14.0 12.5 12.0 88 1.1 SSE 11 15 6 8 1016.1 1016.0 0.0
11/01:30am 14.2 12.0 12.2 88 1.1 SSE 15 17 8 9 1016.3 1016.2 0.0
11/01:00am 14.1 12.3 12.1 88 1.1 SSE 13 17 7 9 1016.5 1016.4 0.0
11/12:30am 13.9 11.6 11.9 88 1.1 S 15 17 8 9 1016.8 1016.7 0.0
11/12:00am 14.5 12.0 12.2 86 1.2 S 17 20 9 11 1016.6 1016.5 0.0
 
Date/Time
CDT
Temp
°C
App
Temp
°C
Dew
Point
Rel
Hum
%
Delta-T
°C
Wind Press
QNH
hPa
Press
MSL
hPa
Rain
since 9 am
mm
Dir
 
Spd
km/h
Gust
km/h
Spd
kts
Gust
kts
10/11:30pm 14.9 12.0 12.4 85 1.4 S 19 22 10 12 1016.5 1016.4 0.0
10/11:00pm 14.9 12.0 12.4 85 1.4 S 19 22 10 12 1016.8 1016.7 0.0
10/10:30pm 15.4 13.0 12.5 83 1.6 S 17 20 9 11 1016.8 1016.7 0.0
10/10:00pm 15.8 12.8 12.7 82 1.7 S 20 24 11 13 1016.5 1016.4 0.0
10/09:30pm 16.1 13.2 12.8 81 1.8 S 20 26 11 14 1016.5 1016.4 0.0
10/09:00pm 16.3 13.1 13.0 81 1.8 S 22 26 12 14 1016.3 1016.2 0.0
10/08:30pm 16.3 13.4 13.0 81 1.8 S 20 26 11 14 1016.2 1016.1 0.0
10/08:00pm 16.9 12.4 12.6 76 2.4 S 28 35 15 19 1016.0 1015.9 0.0
10/07:30pm 17.8 12.9 12.7 72 2.8 S 30 39 16 21 1015.8 1015.7 0.0
10/07:00pm 18.4 13.1 12.6 69 3.2 S 32 41 17 22 1015.5 1015.4 0.0
10/06:30pm 19.2 13.8 12.9 67 3.5 S 33 39 18 21 1015.3 1015.2 0.0
10/06:00pm 19.5 13.3 12.8 65 3.8 S 37 44 20 24 1015.1 1015.0 0.0
10/05:30pm 19.9 13.4 12.9 64 4.0 S 39 48 21 26 1014.8 1014.7 0.0
10/05:00pm 19.8 13.3 13.0 65 3.9 SSW 39 46 21 25 1014.8 1014.7 0.0
10/04:30pm 20.4 14.8 13.4 64 4.0 SSW 35 44 19 24 1014.8 1014.7 0.0
10/04:00pm 20.3 14.1 12.8 62 4.2 SSW 37 46 20 25 1014.9 1014.8 0.0
10/03:30pm 20.6 14.4 12.6 60 4.5 SSW 37 46 20 25 1015.0 1014.9 0.0
10/03:00pm 20.4 14.2 12.6 61 4.4 SSW 37 48 20 26 1015.2 1015.1 0.0
10/02:30pm 20.7 14.2 12.9 61 4.4 SSW 39 46 21 25 1015.4 1015.3 0.0
10/02:00pm 20.4 13.9 12.9 62 4.3 SSW 39 46 21 25 1015.5 1015.4 0.0
10/01:30pm 20.2 13.9 12.4 61 4.4 SSW 37 44 20 24 1015.6 1015.5 0.0
10/01:00pm 20.9 15.4 13.6 63 4.2 SSW 35 43 19 23 1015.8 1015.7 0.0
10/12:30pm 19.9 14.1 12.7 63 4.1 SSW 35 41 19 22 1016.0 1015.9 0.0
10/12:00pm 20.0 14.3 13.0 64 4.0 SSW 35 43 19 23 1016.3 1016.2 0.0
10/11:30am 19.8 14.6 12.8 64 3.9 S 32 37 17 20 1016.6 1016.5 0.0
10/11:00am 19.0 15.1 13.2 69 3.3 SSW 26 33 14 18 1016.9 1016.8 0.0
10/10:30am 18.7 15.5 13.1 70 3.2 SSW 22 28 12 15 1017.0 1016.9 0.0
10/10:00am 18.4 15.2 13.1 71 3.0 SSW 22 26 12 14 1017.2 1017.1 0.0
10/09:30am 18.6 16.8 13.2 71 3.0 SSE 15 22 8 12 1017.2 1017.1 0.0
10/09:00am 16.8 15.4 13.3 80 2.0 SSE 13 17 7 9 1017.2 1017.1 0.0
10/08:30am 15.4 13.8 12.9 85 1.4 S 13 17 7 9 1017.3 1017.2 0.0
10/08:00am 14.2 12.4 12.2 88 1.1 S 13 17 7 9 1017.0 1016.9 0.0
10/07:30am 13.1 11.9 11.5 90 0.8 SSE 9 13 5 7 1016.6 1016.5 0.0
10/07:00am 12.1 11.0 10.7 91 0.7 SSE 7 9 4 5 1016.2 1016.1 0.0
10/06:30am 11.5 10.2 10.1 91 0.7 SSE 7 9 4 5 1016.1 1016.0 0.0
10/06:00am 11.7 10.1 10.1 90 0.8 SSE 9 11 5 6 1015.9 1015.8 0.0
10/05:30am 12.0 10.1 10.4 90 0.8 SSE 11 15 6 8 1015.7 1015.6 0.0
10/05:00am 12.4 9.8 10.8 90 0.8 SSE 15 20 8 11 1015.5 1015.4 0.0
10/04:30am 11.8 9.7 9.9 88 1.0 S 11 13 6 7 1015.4 1015.3 0.0
10/04:00am 13.3 11.2 11.2 87 1.1 SSE 13 19 7 10 1015.1 1015.0 0.0
10/03:30am 13.2 11.5 11.1 87 1.1 SE 11 15 6 8 1015.2 1015.1 0.0
10/03:00am 13.4 11.7 11.3 87 1.1 SE 11 15 6 8 1015.5 1015.4 0.0
10/02:30am 13.1 11.4 11.2 88 1.0 SSE 11 15 6 8 1015.8 1015.7 0.0
10/02:00am 13.5 11.1 11.4 87 1.1 SSE 15 22 8 12 1016.3 1016.2 0.0
10/01:30am 13.6 11.2 11.5 87 1.1 SSE 15 19 8 10 1016.7 1016.6 0.0
10/01:00am 13.8 11.4 11.5 86 1.2 SSE 15 20 8 11 1016.8 1016.7 0.0
10/12:30am 14.1 11.0 11.6 85 1.3 S 19 24 10 13 1016.8 1016.7 0.0
10/12:00am 14.4 12.1 11.6 83 1.5 SSE 15 22 8 12 1016.8 1016.7 0.0
 
Date/Time
CDT
Temp
°C
App
Temp
°C
Dew
Point
Rel
Hum
%
Delta-T
°C
Wind Press
QNH
hPa
Press
MSL
hPa
Rain
since 9 am
mm
Dir
 
Spd
km/h
Gust
km/h
Spd
kts
Gust
kts
09/11:30pm 14.9 12.3 11.9 82 1.6 SSE 17 20 9 11 1017.0 1016.9 0.0
09/11:00pm 15.2 13.4 12.2 82 1.6 SSE 13 19 7 10 1017.1 1017.0 0.0
09/10:30pm 15.4 12.9 12.3 82 1.7 SSE 17 24 9 13 1017.3 1017.2 0.0
09/10:00pm 15.6 13.5 12.4 81 1.8 SSE 15 20 8 11 1017.5 1017.4 0.0
09/09:30pm 15.8 12.9 12.4 80 1.9 SSE 19 28 10 15 1017.3 1017.2 0.0
09/09:00pm 16.1 11.6 12.5 79 2.0 S 28 33 15 18 1017.0 1016.9 0.0
09/08:30pm 16.6 12.2 12.8 78 2.1 S 28 39 15 21 1017.1 1017.0 0.0
09/08:00pm 17.4 13.4 12.9 75 2.5 S 26 33 14 18 1017.1 1017.0 0.0
09/07:30pm 17.6 13.0 13.5 77 2.3 S 30 39 16 21 1017.1 1017.0 0.0
09/07:00pm 17.9 11.5 13.2 74 2.6 S 39 46 21 25 1017.1 1017.0 0.0
09/06:30pm 18.3 11.9 13.2 72 2.9 S 39 46 21 25 1017.2 1017.1 0.0
09/06:00pm 19.7 14.4 13.2 66 3.7 SSW 33 41 18 22 1017.1 1017.0 0.0
09/05:30pm 20.6 15.5 13.1 62 4.3 S 32 39 17 21 1017.3 1017.2 0.0
09/05:00pm 20.9 15.8 13.1 61 4.5 SSW 32 37 17 20 1017.5 1017.4 0.0
09/04:30pm 20.8 14.8 13.3 62 4.3 SSW 37 44 20 24 1017.6 1017.5 0.0
09/04:00pm 20.9 14.2 13.4 62 4.3 SSW 41 46 22 25 1017.7 1017.6 0.0
09/03:30pm 20.9 14.1 13.1 61 4.4 SSW 41 48 22 26 1018.2 1018.1 0.0
09/03:00pm 21.0 14.6 13.2 61 4.5 SSW 39 44 21 24 1018.3 1018.2 0.0

Other Formats:

Comma delimited format used in spreadsheet applications
http://www.bom.gov.au/fwo/IDS60801/IDS60801.94813.axf

JavaScript Object Notation format (JSON) in row-major order
http://www.bom.gov.au/fwo/IDS60801/IDS60801.94813.json